createdAt,value
2024-02-12T00:01:47.937Z,3.60
2024-02-12T00:04:16.032Z,2.85
2024-02-12T00:06:44.172Z,1.88
2024-02-12T00:09:11.106Z,3.83
2024-02-12T00:11:38.473Z,4.53
2024-02-12T00:14:05.708Z,2.58
2024-02-12T00:16:32.824Z,2.28
2024-02-12T00:19:01.078Z,2.17
2024-02-12T00:21:30.184Z,2.28
2024-02-12T00:23:57.185Z,5.07
2024-02-12T00:26:27.311Z,1.85
2024-02-12T00:28:57.899Z,1.42
2024-02-12T00:31:24.728Z,2.78
2024-02-12T00:33:51.834Z,2.17
2024-02-12T00:36:19.446Z,1.25
2024-02-12T00:38:46.886Z,2.22
2024-02-12T00:41:14.376Z,2.08
2024-02-12T00:43:44.964Z,4.85
2024-02-12T00:46:12.653Z,2.58
2024-02-12T00:48:40.157Z,1.05
2024-02-12T00:51:07.515Z,3.47
2024-02-12T00:53:35.099Z,3.70
2024-02-12T00:56:04.211Z,2.63
2024-02-12T00:58:32.225Z,3.67
2024-02-12T01:00:59.258Z,4.28
2024-02-12T01:03:26.736Z,2.33
2024-02-12T01:05:55.140Z,2.53
2024-02-12T01:08:22.716Z,3.20
2024-02-12T01:10:49.494Z,1.63
2024-02-12T01:13:16.254Z,4.50
2024-02-12T01:15:43.084Z,2.33
2024-02-12T01:18:11.293Z,2.08
2024-02-12T01:20:39.828Z,4.20
2024-02-12T01:23:08.004Z,3.15
2024-02-12T01:25:35.453Z,3.65
2024-02-12T01:28:02.212Z,2.45
2024-02-12T01:30:29.916Z,3.10
2024-02-12T01:32:57.511Z,3.92
2024-02-12T01:35:24.573Z,4.82
2024-02-12T01:37:54.303Z,4.15
2024-02-12T01:40:20.991Z,5.60
2024-02-12T01:42:51.276Z,3.90
2024-02-12T01:45:25.197Z,4.22
2024-02-12T01:47:59.225Z,5.60
2024-02-12T01:50:27.695Z,4.07
2024-02-12T01:52:55.592Z,5.75
2024-02-12T01:55:24.518Z,7.03
2024-02-12T01:57:51.870Z,6.07
2024-02-12T02:00:20.864Z,4.93
2024-02-12T02:02:48.153Z,5.00
2024-02-12T02:05:15.138Z,4.88
2024-02-12T02:07:42.895Z,3.20
2024-02-12T02:10:16.157Z,2.95
2024-02-12T02:12:43.605Z,3.17
2024-02-12T02:15:11.078Z,4.88
2024-02-12T02:17:38.096Z,3.70
2024-02-12T02:20:08.398Z,4.93
2024-02-12T02:22:35.683Z,6.40
2024-02-12T02:25:03.054Z,4.40
2024-02-12T02:27:29.718Z,4.38
2024-02-12T02:29:56.417Z,5.22
2024-02-12T02:32:23.426Z,4.25
2024-02-12T02:34:50.584Z,3.72
2024-02-12T02:37:17.452Z,5.82
2024-02-12T02:39:44.364Z,5.47
2024-02-12T02:42:12.890Z,4.47
2024-02-12T02:44:40.925Z,3.75
2024-02-12T02:47:09.704Z,4.38
2024-02-12T02:49:36.770Z,3.28
2024-02-12T02:52:04.096Z,4.50
2024-02-12T02:54:30.954Z,3.17
2024-02-12T02:56:58.388Z,7.55
2024-02-12T02:59:26.314Z,3.03
2024-02-12T03:01:53.339Z,4.63
2024-02-12T03:04:20.155Z,4.43
2024-02-12T03:06:47.014Z,5.60
2024-02-12T03:09:14.964Z,3.63
2024-02-12T03:11:41.971Z,3.60
2024-02-12T03:14:10.268Z,4.80
2024-02-12T03:16:37.697Z,4.75
2024-02-12T03:19:06.683Z,4.72
2024-02-12T03:21:34.229Z,3.60
2024-02-12T03:24:01.050Z,3.97
2024-02-12T03:26:27.884Z,3.78
2024-02-12T03:28:54.694Z,4.35
2024-02-12T03:31:21.450Z,4.75
2024-02-12T03:33:50.850Z,5.63
2024-02-12T03:36:17.999Z,5.95
2024-02-12T03:38:46.002Z,6.00
2024-02-12T03:41:25.289Z,4.82
2024-02-12T03:43:58.442Z,4.93
2024-02-12T03:46:32.245Z,4.80
2024-02-12T03:49:18.296Z,6.32
2024-02-12T03:52:03.819Z,7.20
2024-02-12T03:54:49.285Z,5.90
2024-02-12T03:57:34.824Z,4.57
2024-02-12T04:00:02.768Z,4.55
2024-02-12T04:02:29.686Z,7.00
2024-02-12T04:04:56.415Z,4.22
2024-02-12T04:07:24.648Z,5.28
2024-02-12T04:09:51.922Z,6.30
2024-02-12T04:12:18.718Z,5.50
2024-02-12T04:14:45.548Z,5.38
2024-02-12T04:17:15.367Z,3.67
2024-02-12T04:19:44.173Z,4.95
2024-02-12T04:22:11.523Z,4.28
2024-02-12T04:24:42.669Z,6.10
2024-02-12T04:27:10.963Z,4.72
2024-02-12T04:29:39.497Z,6.38
2024-02-12T04:32:17.154Z,5.57
2024-02-12T04:34:44.020Z,6.07
2024-02-12T04:37:12.171Z,5.95
2024-02-12T04:39:39.630Z,5.40
2024-02-12T04:42:06.795Z,5.07
2024-02-12T04:44:34.025Z,6.13
2024-02-12T04:47:01.474Z,4.32
2024-02-12T04:49:33.022Z,4.53
2024-02-12T04:51:59.808Z,4.18
2024-02-12T04:54:26.536Z,3.53
2024-02-12T04:56:53.269Z,5.22
2024-02-12T04:59:20.330Z,4.55
2024-02-12T05:01:47.120Z,4.85
2024-02-12T05:04:14.115Z,4.78
2024-02-12T05:06:40.841Z,4.60
2024-02-12T05:09:11.829Z,5.35
2024-02-12T05:11:40.298Z,6.53
2024-02-12T05:14:07.442Z,6.07
2024-02-12T05:16:35.212Z,4.28
2024-02-12T05:19:21.567Z,6.95
2024-02-12T05:22:07.580Z,3.47
2024-02-12T05:24:34.831Z,6.78
2024-02-12T05:27:02.732Z,5.05
2024-02-12T05:29:29.948Z,3.85
2024-02-12T05:31:57.067Z,4.70
2024-02-12T05:34:24.619Z,5.15
2024-02-12T05:36:56.094Z,3.90
2024-02-12T05:39:23.449Z,7.40
2024-02-12T05:41:50.442Z,4.00
2024-02-12T05:44:17.881Z,4.03
2024-02-12T05:46:44.620Z,4.60
2024-02-12T05:49:15.528Z,4.50
2024-02-12T05:51:47.686Z,4.95
2024-02-12T05:54:14.338Z,4.45
2024-02-12T05:56:41.994Z,4.30
2024-02-12T05:59:10.770Z,5.82
2024-02-12T06:01:37.626Z,4.63
2024-02-12T06:04:04.582Z,5.57
2024-02-12T06:06:31.803Z,6.72
2024-02-12T06:08:58.976Z,6.90
2024-02-12T06:11:25.838Z,4.60
2024-02-12T06:13:52.651Z,4.53
2024-02-12T06:16:19.335Z,7.05
2024-02-12T06:18:48.062Z,5.60
2024-02-12T06:21:14.975Z,7.00
2024-02-12T06:23:41.648Z,4.22
2024-02-12T06:26:08.429Z,5.00
2024-02-12T06:28:35.846Z,5.18
2024-02-12T06:31:02.538Z,4.95
2024-02-12T06:33:29.371Z,7.65
2024-02-12T06:35:57.826Z,6.82
2024-02-12T06:38:24.794Z,6.13
2024-02-12T06:40:51.608Z,7.35
2024-02-12T06:43:18.333Z,4.57
2024-02-12T06:45:44.999Z,6.43
2024-02-12T06:48:11.813Z,6.15
2024-02-12T06:50:38.678Z,6.90
2024-02-12T06:53:09.435Z,7.60
2024-02-12T06:55:36.158Z,4.50
2024-02-12T06:58:03.171Z,5.18
2024-02-12T07:00:31.091Z,6.30
2024-02-12T07:02:58.058Z,4.93
2024-02-12T07:05:26.614Z,7.13
2024-02-12T07:07:54.418Z,7.50
2024-02-12T07:10:24.265Z,5.18
2024-02-12T07:12:51.761Z,4.80
2024-02-12T07:15:18.583Z,7.10
2024-02-12T07:17:48.376Z,7.22
2024-02-12T07:20:15.269Z,6.38
2024-02-12T07:22:42.050Z,5.88
2024-02-12T07:25:09.861Z,5.22
2024-02-12T07:27:37.769Z,5.18
2024-02-12T07:30:08.545Z,6.97
2024-02-12T07:32:39.090Z,10.48
2024-02-12T07:35:11.868Z,8.25
2024-02-12T07:37:42.544Z,8.48
2024-02-12T07:40:13.105Z,7.68
2024-02-12T07:42:42.226Z,9.02
2024-02-12T07:45:12.114Z,8.95
2024-02-12T07:47:40.435Z,9.30
2024-02-12T07:50:07.667Z,7.38
2024-02-12T07:52:34.458Z,8.20
2024-02-12T07:55:02.385Z,9.30
2024-02-12T07:57:29.273Z,8.88
2024-02-12T07:59:57.602Z,11.13
2024-02-12T08:02:25.608Z,11.55
2024-02-12T08:04:52.946Z,9.32
2024-02-12T08:07:22.593Z,10.00
2024-02-12T08:09:51.561Z,9.57
2024-02-12T08:12:19.559Z,11.32
2024-02-12T08:14:46.544Z,10.82
2024-02-12T08:17:13.342Z,10.43
2024-02-12T08:19:55.238Z,13.82
2024-02-12T08:22:24.758Z,10.80
2024-02-12T08:24:54.822Z,13.10
2024-02-12T08:27:21.490Z,10.52
2024-02-12T08:29:49.184Z,9.40
2024-02-12T08:32:15.947Z,12.35
2024-02-12T08:34:42.841Z,10.15
2024-02-12T08:37:09.844Z,11.70
2024-02-12T08:39:38.020Z,10.18
2024-02-12T08:42:05.297Z,11.48
2024-02-12T08:44:33.090Z,10.82
2024-02-12T08:47:02.986Z,11.77
2024-02-12T08:49:29.860Z,11.43
2024-02-12T08:51:57.646Z,12.80
2024-02-12T08:54:24.600Z,11.75
2024-02-12T08:56:51.321Z,14.75
2024-02-12T08:59:20.461Z,12.00
2024-02-12T09:01:47.358Z,11.02
2024-02-12T09:04:14.505Z,14.15
2024-02-12T09:06:41.866Z,14.55
2024-02-12T09:09:13.904Z,14.88
2024-02-12T09:11:43.032Z,15.52
2024-02-12T09:14:10.487Z,14.43
2024-02-12T09:16:40.570Z,12.15
2024-02-12T09:19:07.507Z,14.52
2024-02-12T09:21:34.407Z,15.18
2024-02-12T09:24:01.424Z,13.60
2024-02-12T09:26:28.222Z,15.10
2024-02-12T09:28:55.286Z,14.82
2024-02-12T09:31:22.023Z,13.18
2024-02-12T09:33:48.992Z,14.15
2024-02-12T09:36:17.171Z,12.48
2024-02-12T09:38:44.006Z,14.15
2024-02-12T09:41:15.880Z,17.33
2024-02-12T09:43:45.264Z,14.45
2024-02-12T09:46:15.149Z,12.60
2024-02-12T09:48:42.701Z,11.35
2024-02-12T09:51:10.381Z,14.35
2024-02-12T09:53:41.306Z,10.10
2024-02-12T09:56:08.948Z,12.30
2024-02-12T09:58:37.553Z,12.10
2024-02-12T10:01:06.635Z,11.45
2024-02-12T10:03:36.352Z,10.48
2024-02-12T10:06:03.468Z,11.82
2024-02-12T10:08:31.838Z,10.93
2024-02-12T10:10:58.673Z,9.98
2024-02-12T10:13:25.616Z,9.60
2024-02-12T10:15:56.743Z,9.10
2024-02-12T10:18:23.538Z,10.05
2024-02-12T10:20:51.163Z,10.82
2024-02-12T10:23:20.216Z,10.75
2024-02-12T10:25:52.507Z,10.52
2024-02-12T10:28:20.168Z,13.75
2024-02-12T10:30:50.066Z,9.45
2024-02-12T10:33:17.718Z,11.20
2024-02-12T10:35:48.647Z,10.65
2024-02-12T10:38:17.183Z,11.77
2024-02-12T10:40:46.921Z,12.07
2024-02-12T10:43:16.712Z,11.07
2024-02-12T10:45:48.822Z,11.30
2024-02-12T10:48:18.733Z,11.40
2024-02-12T10:50:49.445Z,11.40
2024-02-12T10:53:19.734Z,11.82
2024-02-12T10:55:47.104Z,9.60
2024-02-12T10:58:14.599Z,9.82
2024-02-12T11:00:49.197Z,11.63
2024-02-12T11:03:19.293Z,8.90
2024-02-12T11:05:46.347Z,8.57
2024-02-12T11:08:19.483Z,13.63
2024-02-12T11:10:50.114Z,9.63
2024-02-12T11:13:18.514Z,9.70
2024-02-12T11:15:52.033Z,9.85
2024-02-12T11:18:23.816Z,9.93
2024-02-12T11:20:52.114Z,7.78
2024-02-12T11:23:23.810Z,12.00
2024-02-12T11:25:55.410Z,8.40
2024-02-12T11:28:24.866Z,9.52
2024-02-12T11:30:51.964Z,7.82
2024-02-12T11:33:18.908Z,11.20
2024-02-12T11:35:46.464Z,9.13
2024-02-12T11:38:15.823Z,9.57
2024-02-12T11:40:42.554Z,9.20
2024-02-12T11:43:09.416Z,10.18
2024-02-12T11:45:36.740Z,8.05
2024-02-12T11:48:12.146Z,11.65
2024-02-12T11:50:39.414Z,11.98
2024-02-12T11:53:06.815Z,8.27
2024-02-12T11:55:34.452Z,9.88
2024-02-12T11:58:01.251Z,9.90
2024-02-12T12:00:29.858Z,8.98
2024-02-12T12:02:56.733Z,7.43
2024-02-12T12:05:27.781Z,9.48
2024-02-12T12:07:57.507Z,7.93
2024-02-12T12:10:26.490Z,9.00
2024-02-12T12:12:59.807Z,8.57
2024-02-12T12:15:29.403Z,7.68
2024-02-12T12:17:57.538Z,8.98
2024-02-12T12:20:27.355Z,9.40
2024-02-12T12:22:54.491Z,8.45
2024-02-12T12:25:21.339Z,9.15
2024-02-12T12:27:55.537Z,9.05
2024-02-12T12:30:23.548Z,9.02
2024-02-12T12:32:52.651Z,11.80
2024-02-12T12:35:20.261Z,8.73
2024-02-12T12:37:47.101Z,9.90
2024-02-12T12:40:27.018Z,9.93
2024-02-12T12:42:58.739Z,8.45
2024-02-12T12:45:25.941Z,8.48
2024-02-12T12:47:53.054Z,11.13
2024-02-12T12:50:20.234Z,10.90
2024-02-12T12:52:47.015Z,8.40
2024-02-12T12:55:15.477Z,7.18
2024-02-12T12:57:47.034Z,9.43
2024-02-12T13:00:27.945Z,10.75
2024-02-12T13:02:55.456Z,9.68
2024-02-12T13:05:22.537Z,8.77
2024-02-12T13:08:16.653Z,10.55
2024-02-12T13:10:42.119Z,8.32
2024-02-12T13:13:15.334Z,9.77
2024-02-12T13:15:44.764Z,8.60
2024-02-12T13:18:14.523Z,9.38
2024-02-12T13:20:43.888Z,8.88
2024-02-12T13:23:11.217Z,8.15
2024-02-12T13:25:38.504Z,10.32
2024-02-12T13:28:10.715Z,9.07
2024-02-12T13:33:06.942Z,9.60
2024-02-12T13:35:34.285Z,10.40
2024-02-12T13:38:01.729Z,8.48
2024-02-12T13:40:31.622Z,10.45
2024-02-12T13:42:59.084Z,8.82
2024-02-12T13:45:26.354Z,7.78
2024-02-12T13:47:53.904Z,11.05
2024-02-12T13:50:21.383Z,10.50
2024-02-12T13:52:49.742Z,9.43
2024-02-12T13:55:17.241Z,10.05
2024-02-12T13:57:48.224Z,10.30
2024-02-12T14:00:43.767Z,10.40
2024-02-12T14:03:10.272Z,10.77
2024-02-12T14:05:37.665Z,11.10
2024-02-12T14:08:05.616Z,7.85
2024-02-12T14:10:33.089Z,9.75
2024-02-12T14:13:00.900Z,9.98
2024-02-12T14:16:02.503Z,8.15
2024-02-12T14:18:14.546Z,10.25
2024-02-12T14:20:41.629Z,9.27
2024-02-12T14:23:11.526Z,8.57
2024-02-12T14:25:39.635Z,9.95
2024-02-12T14:28:06.927Z,8.77
2024-02-12T14:30:35.527Z,10.40
2024-02-12T14:33:04.105Z,7.07
2024-02-12T14:35:36.816Z,7.07
2024-02-12T14:38:04.637Z,6.85
2024-02-12T14:40:31.589Z,7.30
2024-02-12T14:42:59.155Z,5.47
2024-02-12T14:45:30.539Z,6.82
2024-02-12T14:48:06.421Z,7.55
2024-02-12T14:50:34.364Z,7.55
2024-02-12T14:53:02.014Z,7.38
2024-02-12T14:55:28.754Z,7.68
2024-02-12T14:57:55.574Z,8.73
2024-02-12T15:00:25.522Z,7.32
2024-02-12T15:02:54.437Z,7.97
2024-02-12T15:05:21.952Z,7.57
2024-02-12T15:07:51.326Z,6.57
2024-02-12T15:10:23.035Z,8.23
2024-02-12T15:12:54.047Z,9.73
2024-02-12T15:15:21.176Z,8.02
2024-02-12T15:17:52.059Z,8.10
2024-02-12T15:20:22.538Z,8.20
2024-02-12T15:22:51.178Z,9.65
2024-02-12T15:25:24.119Z,7.88
2024-02-12T15:27:52.289Z,8.15
2024-02-12T15:30:21.025Z,8.30
2024-02-12T15:32:51.228Z,11.93
2024-02-12T15:35:19.932Z,11.07
2024-02-12T15:37:48.174Z,10.55
2024-02-12T15:40:23.453Z,10.32
2024-02-12T15:42:53.421Z,9.32
2024-02-12T15:45:24.460Z,8.32
2024-02-12T15:47:57.502Z,9.05
2024-02-12T15:50:25.644Z,9.05
2024-02-12T15:52:55.069Z,9.75
2024-02-12T15:55:25.936Z,8.15
2024-02-12T15:57:55.678Z,8.65
2024-02-12T16:00:27.540Z,7.88
2024-02-12T16:02:56.966Z,9.13
2024-02-12T16:06:11.806Z,9.75
2024-02-12T16:08:41.770Z,9.43
2024-02-12T16:11:15.557Z,10.95
2024-02-12T16:13:44.822Z,9.35
2024-02-12T16:16:12.875Z,8.05
2024-02-12T16:18:40.036Z,11.73
2024-02-12T16:21:09.182Z,10.63
2024-02-12T16:23:37.865Z,12.70
2024-02-12T16:26:08.170Z,12.30
2024-02-12T16:28:35.068Z,11.13
2024-02-12T16:31:02.254Z,12.82
2024-02-12T16:33:29.129Z,11.38
2024-02-12T16:35:56.139Z,9.82
2024-02-12T16:38:23.282Z,10.15
2024-02-12T16:40:50.195Z,11.95
2024-02-12T16:43:17.055Z,9.30
2024-02-12T16:45:43.933Z,11.20
2024-02-12T16:48:13.776Z,10.88
2024-02-12T16:50:41.156Z,12.00
2024-02-12T16:53:10.108Z,9.63
2024-02-12T16:55:39.698Z,11.35
2024-02-12T16:58:07.194Z,12.18
2024-02-12T17:00:34.384Z,12.60
2024-02-12T17:03:01.292Z,11.18
2024-02-12T17:05:28.102Z,13.77
2024-02-12T17:08:02.518Z,17.83
2024-02-12T17:10:37.814Z,15.48
2024-02-12T17:13:06.026Z,13.05
2024-02-12T17:15:35.130Z,15.15
2024-02-12T17:18:05.696Z,18.80
2024-02-12T17:20:33.160Z,13.63
2024-02-12T17:23:01.820Z,13.00
2024-02-12T17:25:28.938Z,14.95
2024-02-12T17:27:55.590Z,15.68
2024-02-12T17:30:23.954Z,14.38
2024-02-12T17:32:52.159Z,13.05
2024-02-12T17:35:20.564Z,15.43
2024-02-12T17:37:49.648Z,18.33
2024-02-12T17:40:16.388Z,18.75
2024-02-12T17:42:43.670Z,19.88
2024-02-12T17:45:11.290Z,15.70
2024-02-12T17:47:41.458Z,15.00
2024-02-12T17:50:09.463Z,16.70
2024-02-12T17:52:36.449Z,17.73
2024-02-12T17:55:03.663Z,17.70
2024-02-12T17:57:33.905Z,23.98
2024-02-12T18:00:01.079Z,17.15
2024-02-12T18:02:28.022Z,16.77
2024-02-12T18:04:54.788Z,17.90
2024-02-12T18:07:21.572Z,17.42
2024-02-12T18:09:55.947Z,15.88
2024-02-12T18:12:23.330Z,15.68
2024-02-12T18:14:51.099Z,19.27
2024-02-12T18:17:24.421Z,15.95
2024-02-12T18:19:53.042Z,13.02
2024-02-12T18:22:22.815Z,20.73
2024-02-12T18:24:49.616Z,15.23
2024-02-12T18:27:16.723Z,17.13
2024-02-12T18:29:44.187Z,14.93
2024-02-12T18:32:12.566Z,14.68
2024-02-12T18:34:39.575Z,17.98
2024-02-12T18:37:06.920Z,16.48
2024-02-12T18:39:33.811Z,14.20
2024-02-12T18:42:00.793Z,16.73
2024-02-12T18:44:29.536Z,17.58
2024-02-12T18:46:58.215Z,18.13
2024-02-12T18:49:25.321Z,18.58
2024-02-12T18:51:52.314Z,13.82
2024-02-12T18:54:19.079Z,15.25
2024-02-12T18:56:45.899Z,13.70
2024-02-12T18:59:12.722Z,16.55
2024-02-12T19:01:40.649Z,17.85
2024-02-12T19:04:07.792Z,14.85
2024-02-12T19:06:34.625Z,17.67
2024-02-12T19:09:10.109Z,17.02
2024-02-12T19:11:37.103Z,21.98
2024-02-12T19:14:04.450Z,21.40
2024-02-12T19:16:33.831Z,13.68
2024-02-12T19:19:00.936Z,17.00
2024-02-12T19:21:27.701Z,17.65
2024-02-12T19:23:54.608Z,16.77
2024-02-12T19:26:22.667Z,18.80
2024-02-12T19:28:49.909Z,18.95
2024-02-12T19:31:17.177Z,19.10
2024-02-12T19:33:44.002Z,16.85
2024-02-12T19:36:12.143Z,16.65
2024-02-12T19:38:39.713Z,16.73
2024-02-12T19:41:07.803Z,17.63
2024-02-12T19:43:34.727Z,16.83
2024-02-12T19:46:01.475Z,15.15
2024-02-12T19:48:28.317Z,19.08
2024-02-12T19:50:55.805Z,17.80
2024-02-12T19:53:25.270Z,15.57
2024-02-12T19:55:53.612Z,14.85
2024-02-12T19:58:21.418Z,14.63
2024-02-12T20:00:48.452Z,15.82
2024-02-12T20:03:15.282Z,14.10
2024-02-12T20:05:42.113Z,13.73
2024-02-12T20:08:08.920Z,13.13
2024-02-12T20:10:36.819Z,12.13
2024-02-12T20:13:05.794Z,14.02
2024-02-12T20:15:35.493Z,12.80
2024-02-12T20:18:04.833Z,11.55
2024-02-12T20:20:36.527Z,8.85
2024-02-12T20:23:03.608Z,9.35
2024-02-12T20:25:30.433Z,9.45
2024-02-12T20:27:57.588Z,8.35
2024-02-12T20:30:24.513Z,13.10
2024-02-12T20:32:55.506Z,8.68
2024-02-12T20:35:24.991Z,10.27
2024-02-12T20:37:51.920Z,9.07
2024-02-12T20:40:18.663Z,8.60
2024-02-12T20:42:45.433Z,8.15
2024-02-12T20:45:12.514Z,9.25
2024-02-12T20:47:42.233Z,5.53
2024-02-12T20:50:11.798Z,7.03
2024-02-12T20:52:39.032Z,5.70
2024-02-12T20:55:06.257Z,4.82
2024-02-12T20:57:33.082Z,5.32
2024-02-12T20:59:59.765Z,6.25
2024-02-12T21:02:28.733Z,8.60
2024-02-12T21:04:55.680Z,4.90
2024-02-12T21:07:23.595Z,5.30
2024-02-12T21:09:51.266Z,5.60
2024-02-12T21:12:18.350Z,7.32
2024-02-12T21:14:45.610Z,4.75
2024-02-12T21:17:12.602Z,4.75
2024-02-12T21:19:39.428Z,5.32
2024-02-12T21:22:09.594Z,6.85
2024-02-12T21:24:38.536Z,5.30
2024-02-12T21:27:06.273Z,5.35
2024-02-12T21:29:33.518Z,4.45
2024-02-12T21:32:00.273Z,4.38
2024-02-12T21:34:27.939Z,4.40
2024-02-12T21:36:54.834Z,5.07
2024-02-12T21:39:34.625Z,5.47
2024-02-12T21:42:09.715Z,4.80
2024-02-12T21:44:37.877Z,5.43
2024-02-12T21:47:07.719Z,3.95
2024-02-12T21:49:34.672Z,5.18
2024-02-12T21:52:01.638Z,4.78
2024-02-12T21:54:28.288Z,4.90
2024-02-12T21:56:55.070Z,3.88
2024-02-12T21:59:21.797Z,7.45
2024-02-12T22:01:48.516Z,5.38
2024-02-12T22:04:15.517Z,4.35
2024-02-12T22:06:42.378Z,6.13
2024-02-12T22:09:09.139Z,6.60
2024-02-12T22:11:35.940Z,6.88
2024-02-12T22:14:02.690Z,6.68
2024-02-12T22:16:31.460Z,6.72
2024-02-12T22:18:58.483Z,5.13
2024-02-12T22:21:25.322Z,5.43
2024-02-12T22:23:52.020Z,6.65
2024-02-12T22:26:18.945Z,7.22
2024-02-12T22:28:46.697Z,5.85
2024-02-12T22:31:13.355Z,5.78
2024-02-12T22:33:40.285Z,4.65
2024-02-12T22:36:07.355Z,4.85
2024-02-12T22:38:34.290Z,6.05
2024-02-12T22:41:01.048Z,6.43
2024-02-12T22:43:27.716Z,5.30
2024-02-12T22:45:56.557Z,6.55
2024-02-12T22:48:23.805Z,5.00
2024-02-12T22:50:51.141Z,6.60
2024-02-12T22:53:19.011Z,7.25
2024-02-12T22:55:45.974Z,5.07
2024-02-12T22:58:12.672Z,5.28
2024-02-12T23:00:42.304Z,7.20
2024-02-12T23:03:09.180Z,5.97
2024-02-12T23:05:36.026Z,8.27
2024-02-12T23:08:03.175Z,8.32
2024-02-12T23:10:30.587Z,6.05
2024-02-12T23:12:57.400Z,8.45
2024-02-12T23:15:24.354Z,7.00
2024-02-12T23:17:54.188Z,7.00
2024-02-12T23:20:22.141Z,7.03
2024-02-12T23:22:49.029Z,7.22
2024-02-12T23:25:15.701Z,6.15
2024-02-12T23:27:42.405Z,6.55
2024-02-12T23:30:14.335Z,6.00
2024-02-12T23:32:44.991Z,6.55
2024-02-12T23:35:12.329Z,6.38
2024-02-12T23:37:39.153Z,6.95
2024-02-12T23:40:11.017Z,7.85
2024-02-12T23:42:43.659Z,7.35
2024-02-12T23:45:11.219Z,10.27
2024-02-12T23:47:38.893Z,8.02
2024-02-12T23:50:12.757Z,10.70
2024-02-12T23:52:41.501Z,7.40
2024-02-12T23:55:10.606Z,10.18
2024-02-12T23:57:41.264Z,9.23
